Time,TemperatureF,DewpointF,PressureIn,WindDirection,WindDirectionDegrees,WindSpeedMPH,WindSpeedGustMPH,Humidity,HourlyPrecipIn,Conditions,Clouds,dailyrainin,SoftwareType,DateUTC
2013-03-29 00:00:00,32.5,24.8,30.32,WNW,302,0.0,0.0,73,0.00,,,0.00,Wunderground v.1.15,2013-03-29 04:00:00,
2013-03-29 00:05:00,32.5,24.8,30.32,WNW,302,0.0,0.0,73,0.00,,,0.00,Wunderground v.1.15,2013-03-29 04:05:00,
2013-03-29 00:10:00,32.5,24.8,30.32,WNW,302,0.0,0.0,73,0.00,,,0.00,Wunderground v.1.15,2013-03-29 04:10:00,
2013-03-29 00:20:00,32.4,24.7,30.32,WNW,302,0.0,0.0,73,0.00,,,0.00,Wunderground v.1.15,2013-03-29 04:20:00,
2013-03-29 00:30:00,32.2,24.8,30.32,WNW,302,0.0,0.0,74,0.00,,,0.00,Wunderground v.1.15,2013-03-29 04:30:00,
2013-03-29 00:35:00,32.1,24.7,30.32,WNW,302,0.0,0.0,74,0.00,,,0.00,Wunderground v.1.15,2013-03-29 04:35:00,
2013-03-29 00:45:00,31.8,24.8,30.32,WNW,302,0.0,0.0,75,0.00,,,0.00,Wunderground v.1.15,2013-03-29 04:45:00,
2013-03-29 00:55:00,31.3,24.6,30.32,WNW,302,0.0,0.0,76,0.00,,,0.00,Wunderground v.1.15,2013-03-29 04:55:00,
2013-03-29 01:00:00,31.2,24.8,30.32,WNW,302,0.0,0.0,77,0.00,,,0.00,Wunderground v.1.15,2013-03-29 05:00:00,
2013-03-29 01:10:00,30.7,24.7,30.32,WNW,302,0.0,0.0,78,0.00,,,0.00,Wunderground v.1.15,2013-03-29 05:10:00,
2013-03-29 01:20:00,30.4,24.4,30.31,WNW,302,0.0,0.0,78,0.00,,,0.00,Wunderground v.1.15,2013-03-29 05:20:00,
2013-03-29 01:25:00,30.3,24.3,30.31,WNW,302,0.0,0.0,78,0.00,,,0.00,Wunderground v.1.15,2013-03-29 05:25:00,
2013-03-29 01:35:00,30.1,24.4,30.32,WNW,302,0.0,0.0,79,0.00,,,0.00,Wunderground v.1.15,2013-03-29 05:35:00,
2013-03-29 01:40:00,30.0,24.3,30.32,WNW,302,0.0,0.0,79,0.00,,,0.00,Wunderground v.1.15,2013-03-29 05:40:00,
2013-03-29 01:50:00,29.7,24.3,30.32,WNW,302,0.0,0.0,80,0.00,,,0.00,Wunderground v.1.15,2013-03-29 05:50:00,
2013-03-29 02:00:00,29.4,24.0,30.32,WNW,302,0.0,0.0,80,0.00,,,0.00,Wunderground v.1.15,2013-03-29 06:00:00,
2013-03-29 02:05:00,29.4,24.3,30.32,WNW,302,0.0,0.0,81,0.00,,,0.00,Wunderground v.1.15,2013-03-29 06:05:00,
2013-03-29 02:10:00,29.3,24.2,30.32,WNW,302,0.0,0.0,81,0.00,,,0.00,Wunderground v.1.15,2013-03-29 06:10:00,
2013-03-29 02:20:00,29.1,24.3,30.32,WNW,302,0.0,0.0,82,0.00,,,0.00,Wunderground v.1.15,2013-03-29 06:20:00,
2013-03-29 02:30:00,29.0,24.2,30.32,WNW,302,0.0,0.0,82,0.00,,,0.00,Wunderground v.1.15,2013-03-29 06:30:00,
2013-03-29 02:40:00,28.8,24.0,30.32,WNW,302,0.0,0.0,82,0.00,,,0.00,Wunderground v.1.15,2013-03-29 06:40:00,
2013-03-29 02:50:00,28.7,24.2,30.31,WNW,302,0.0,0.0,83,0.00,,,0.00,Wunderground v.1.15,2013-03-29 06:50:00,
2013-03-29 02:55:00,28.7,24.2,30.31,WNW,302,0.0,0.0,83,0.00,,,0.00,Wunderground v.1.15,2013-03-29 06:55:00,
2013-03-29 03:00:00,28.5,24.0,30.31,WNW,302,0.0,0.0,83,0.00,,,0.00,Wunderground v.1.15,2013-03-29 07:00:00,
2013-03-29 03:10:00,28.4,24.2,30.31,WNW,302,0.0,0.0,84,0.00,,,0.00,Wunderground v.1.15,2013-03-29 07:10:00,
2013-03-29 03:20:00,28.2,24.0,30.31,WNW,302,0.0,0.0,84,0.00,,,0.00,Wunderground v.1.15,2013-03-29 07:20:00,
2013-03-29 03:30:00,28.1,23.9,30.31,WNW,302,0.0,0.0,84,0.00,,,0.00,Wunderground v.1.15,2013-03-29 07:30:00,
2013-03-29 03:35:00,28.1,23.9,30.31,WNW,302,0.0,0.0,84,0.00,,,0.00,Wunderground v.1.15,2013-03-29 07:35:00,
2013-03-29 03:45:00,27.9,23.7,30.31,WNW,302,0.0,0.0,84,0.00,,,0.00,Wunderground v.1.15,2013-03-29 07:45:00,
2013-03-29 03:55:00,27.8,23.9,30.31,WNW,302,0.0,0.0,85,0.00,,,0.00,Wunderground v.1.15,2013-03-29 07:55:00,
2013-03-29 04:00:00,27.8,23.9,30.31,WNW,302,0.0,0.0,85,0.00,,,0.00,Wunderground v.1.15,2013-03-29 08:00:00,
2013-03-29 04:10:00,27.6,23.7,30.30,WNW,302,0.0,0.0,85,0.00,,,0.00,Wunderground v.1.15,2013-03-29 08:10:00,
2013-03-29 04:15:00,27.6,23.7,30.30,WNW,302,0.0,0.0,85,0.00,,,0.00,Wunderground v.1.15,2013-03-29 08:15:00,
2013-03-29 04:25:00,27.5,23.9,30.31,WNW,302,0.0,0.0,86,0.00,,,0.00,Wunderground v.1.15,2013-03-29 08:25:00,
2013-03-29 04:30:00,27.5,23.9,30.31,WNW,302,0.0,0.0,86,0.00,,,0.00,Wunderground v.1.15,2013-03-29 08:30:00,
2013-03-29 04:40:00,27.2,23.3,30.31,WNW,302,0.0,0.0,85,0.00,,,0.00,Wunderground v.1.15,2013-03-29 08:40:00,
2013-03-29 04:50:00,27.0,23.4,30.31,WNW,302,0.0,0.0,86,0.00,,,0.00,Wunderground v.1.15,2013-03-29 08:50:00,
2013-03-29 05:00:00,27.0,23.4,30.31,WNW,302,0.0,0.0,86,0.00,,,0.00,Wunderground v.1.15,2013-03-29 09:00:00,
2013-03-29 05:05:00,26.9,23.3,30.30,WNW,302,0.0,0.0,86,0.00,,,0.00,Wunderground v.1.15,2013-03-29 09:05:00,
2013-03-29 05:10:00,26.9,23.3,30.30,WNW,302,0.0,0.0,86,0.00,,,0.00,Wunderground v.1.15,2013-03-29 09:10:00,
2013-03-29 05:20:00,26.9,23.5,30.31,WNW,302,0.0,0.0,87,0.00,,,0.00,Wunderground v.1.15,2013-03-29 09:20:00,
2013-03-29 05:30:00,26.7,23.4,30.31,WNW,302,0.0,0.0,87,0.00,,,0.00,Wunderground v.1.15,2013-03-29 09:30:00,
2013-03-29 05:35:00,26.6,23.3,30.31,WNW,302,0.0,0.0,87,0.00,,,0.00,Wunderground v.1.15,2013-03-29 09:35:00,
2013-03-29 05:45:00,26.6,23.3,30.31,WNW,302,0.0,0.0,87,0.00,,,0.00,Wunderground v.1.15,2013-03-29 09:45:00,
2013-03-29 05:50:00,26.6,23.3,30.31,WNW,302,0.0,0.0,87,0.00,,,0.00,Wunderground v.1.15,2013-03-29 09:50:00,
2013-03-29 06:00:00,26.4,23.1,30.31,WNW,302,0.0,0.0,87,0.00,,,0.00,Wunderground v.1.15,2013-03-29 10:00:00,
2013-03-29 06:10:00,26.3,23.2,30.31,WNW,302,0.0,0.0,88,0.00,,,0.00,Wunderground v.1.15,2013-03-29 10:10:00,
2013-03-29 06:15:00,26.3,23.2,30.31,WNW,302,0.0,0.0,88,0.00,,,0.00,Wunderground v.1.15,2013-03-29 10:15:00,
2013-03-29 06:25:00,26.0,22.9,30.31,WNW,302,0.0,0.0,88,0.00,,,0.00,Wunderground v.1.15,2013-03-29 10:25:00,
2013-03-29 06:30:00,26.0,22.9,30.31,WNW,302,0.0,0.0,88,0.00,,,0.00,Wunderground v.1.15,2013-03-29 10:30:00,
2013-03-29 06:40:00,25.7,22.6,30.31,WNW,302,0.0,0.0,88,0.00,,,0.00,Wunderground v.1.15,2013-03-29 10:40:00,
2013-03-29 06:50:00,25.7,22.9,30.31,WNW,302,0.0,0.0,89,0.00,,,0.00,Wunderground v.1.15,2013-03-29 10:50:00,
2013-03-29 06:55:00,25.7,22.9,30.31,WNW,302,0.0,0.0,89,0.00,,,0.00,Wunderground v.1.15,2013-03-29 10:55:00,
2013-03-29 07:05:00,25.6,22.8,30.31,WNW,302,0.0,0.0,89,0.00,,,0.00,Wunderground v.1.15,2013-03-29 11:05:00,
2013-03-29 07:10:00,25.6,22.8,30.31,WNW,302,0.0,0.0,89,0.00,,,0.00,Wunderground v.1.15,2013-03-29 11:10:00,
2013-03-29 07:20:00,25.6,22.8,30.32,WNW,302,0.0,0.0,89,0.00,,,0.00,Wunderground v.1.15,2013-03-29 11:20:00,
2013-03-29 07:30:00,25.4,22.9,30.32,WNW,302,0.0,0.0,90,0.00,,,0.00,Wunderground v.1.15,2013-03-29 11:30:00,
2013-03-29 07:35:00,25.4,22.9,30.32,WNW,302,0.0,0.0,90,0.00,,,0.00,Wunderground v.1.15,2013-03-29 11:35:00,
2013-03-29 07:45:00,25.6,23.1,30.32,WNW,302,0.0,0.0,90,0.00,,,0.00,Wunderground v.1.15,2013-03-29 11:45:00,
2013-03-29 07:50:00,25.7,23.2,30.32,WNW,302,0.0,0.0,90,0.00,,,0.00,Wunderground v.1.15,2013-03-29 11:50:00,
2013-03-29 08:00:00,26.1,23.6,30.32,WNW,302,0.0,0.0,90,0.00,,,0.00,Wunderground v.1.15,2013-03-29 12:00:00,
2013-03-29 08:10:00,27.0,24.5,30.32,WNW,302,0.0,0.0,90,0.00,,,0.00,Wunderground v.1.15,2013-03-29 12:10:00,
2013-03-29 08:20:00,27.9,25.3,30.33,WNW,302,0.0,0.0,90,0.00,,,0.00,Wunderground v.1.15,2013-03-29 12:20:00,
2013-03-29 08:25:00,29.0,26.7,30.33,WNW,302,0.0,0.0,91,0.00,,,0.00,Wunderground v.1.15,2013-03-29 12:25:00,
2013-03-29 08:35:00,31.2,28.3,30.33,WNW,302,0.0,0.0,89,0.00,,,0.00,Wunderground v.1.15,2013-03-29 12:35:00,
2013-03-29 08:45:00,32.2,28.2,30.33,WNW,302,0.0,0.0,85,0.00,,,0.00,Wunderground v.1.15,2013-03-29 12:45:00,
2013-03-29 08:50:00,32.9,28.6,30.33,WNW,301,0.0,0.0,84,0.00,,,0.00,Wunderground v.1.15,2013-03-29 12:50:00,
2013-03-29 09:00:00,35.0,29.5,30.33,WNW,302,0.0,0.0,80,0.00,,,0.00,Wunderground v.1.15,2013-03-29 13:00:00,
2013-03-29 09:10:00,37.0,29.1,30.32,WNW,301,0.0,0.0,73,0.00,,,0.00,Wunderground v.1.15,2013-03-29 13:10:00,
2013-03-29 09:15:00,37.8,29.6,30.32,WNW,301,0.0,0.0,72,0.00,,,0.00,Wunderground v.1.15,2013-03-29 13:15:00,
2013-03-29 09:25:00,38.9,29.2,30.33,WNW,302,0.0,0.0,68,0.00,,,0.00,Wunderground v.1.15,2013-03-29 13:25:00,
2013-03-29 09:30:00,39.8,30.1,30.33,WNW,301,0.0,0.0,68,0.00,,,0.00,Wunderground v.1.15,2013-03-29 13:30:00,
2013-03-29 09:40:00,40.6,29.7,30.33,WNW,302,0.0,0.0,65,0.00,,,0.00,Wunderground v.1.15,2013-03-29 13:40:00,
2013-03-29 09:50:00,42.5,30.0,30.33,WNW,302,0.0,0.0,61,0.00,,,0.00,Wunderground v.1.15,2013-03-29 13:50:00,
2013-03-29 10:00:00,43.5,29.7,30.33,WNW,301,0.0,0.0,58,0.00,,,0.00,Wunderground v.1.15,2013-03-29 14:00:00,
2013-03-29 10:10:00,44.2,29.0,30.33,WNW,302,0.0,0.0,55,0.00,,,0.00,Wunderground v.1.15,2013-03-29 14:10:00,
2013-03-29 10:20:00,45.7,27.6,30.33,SW,220,1.0,1.0,49,0.00,,,0.00,Wunderground v.1.15,2013-03-29 14:20:00,
2013-03-29 10:25:00,45.8,26.2,30.33,SW,222,1.0,1.0,46,0.00,,,0.00,Wunderground v.1.15,2013-03-29 14:25:00,
2013-03-29 10:35:00,45.7,27.1,30.33,SW,232,2.0,2.0,48,0.00,,,0.00,Wunderground v.1.15,2013-03-29 14:35:00,
2013-03-29 10:45:00,46.4,27.8,30.33,SW,232,1.0,1.0,48,0.00,,,0.00,Wunderground v.1.15,2013-03-29 14:45:00,
2013-03-29 10:50:00,47.1,28.4,30.33,WSW,243,1.0,1.0,48,0.00,,,0.00,Wunderground v.1.15,2013-03-29 14:50:00,
2013-03-29 11:00:00,47.3,27.5,30.33,SW,219,2.0,2.0,46,0.00,,,0.00,Wunderground v.1.15,2013-03-29 15:00:00,
2013-03-29 11:05:00,48.0,28.2,30.33,SW,219,1.0,3.0,46,0.00,,,0.00,Wunderground v.1.15,2013-03-29 15:05:00,
2013-03-29 11:15:00,49.2,26.5,30.33,SSW,196,1.0,5.0,41,0.00,,,0.00,Wunderground v.1.15,2013-03-29 15:15:00,
2013-03-29 11:25:00,50.1,27.3,30.32,West,277,2.0,2.0,41,0.00,,,0.00,Wunderground v.1.15,2013-03-29 15:25:00,
2013-03-29 11:35:00,50.7,27.8,30.32,WSW,257,2.0,2.0,41,0.00,,,0.00,Wunderground v.1.15,2013-03-29 15:35:00,
2013-03-29 11:40:00,50.7,27.8,30.32,SSE,165,3.0,3.0,41,0.00,,,0.00,Wunderground v.1.15,2013-03-29 15:40:00,
2013-03-29 11:50:00,50.8,27.3,30.31,SSE,158,3.0,3.0,40,0.00,,,0.00,Wunderground v.1.15,2013-03-29 15:50:00,
2013-03-29 12:00:00,51.3,27.2,30.31,WNW,287,2.0,6.0,39,0.00,,,0.00,Wunderground v.1.15,2013-03-29 16:00:00,
2013-03-29 12:05:00,51.7,26.2,30.30,North,0,4.0,6.0,37,0.00,,,0.00,Wunderground v.1.15,2013-03-29 16:05:00,
2013-03-29 12:10:00,52.0,25.8,30.30,West,281,4.0,4.0,36,0.00,,,0.00,Wunderground v.1.15,2013-03-29 16:10:00,
2013-03-29 12:20:00,52.0,25.2,30.30,SW,227,3.0,3.0,35,0.00,,,0.00,Wunderground v.1.15,2013-03-29 16:20:00,
2013-03-29 12:30:00,52.8,25.9,30.30,NW,312,2.0,2.0,35,0.00,,,0.00,Wunderground v.1.15,2013-03-29 16:30:00,
2013-03-29 12:40:00,52.8,25.2,30.29,West,260,2.0,3.0,34,0.00,,,0.00,Wunderground v.1.15,2013-03-29 16:40:00,
2013-03-29 12:50:00,52.8,27.2,30.29,WSW,250,3.0,3.0,37,0.00,,,0.00,Wunderground v.1.15,2013-03-29 16:50:00,
2013-03-29 12:55:00,53.6,26.6,30.29,WSW,250,3.0,3.0,35,0.00,,,0.00,Wunderground v.1.15,2013-03-29 16:55:00,
2013-03-29 13:00:00,54.4,28.0,30.29,NNW,342,1.0,2.0,36,0.00,,,0.00,Wunderground v.1.15,2013-03-29 17:00:00,
2013-03-29 13:10:00,54.2,26.4,30.28,North,4,3.0,3.0,34,0.00,,,0.00,Wunderground v.1.15,2013-03-29 17:10:00,
2013-03-29 13:20:00,54.7,26.1,30.27,WNW,289,2.0,5.0,33,0.00,,,0.00,Wunderground v.1.15,2013-03-29 17:20:00,
2013-03-29 13:25:00,54.8,24.7,30.27,NW,304,4.0,5.0,31,0.00,,,0.00,Wunderground v.1.15,2013-03-29 17:25:00,
2013-03-29 13:35:00,55.9,27.2,30.27,NNW,346,2.0,4.0,33,0.00,,,0.00,Wunderground v.1.15,2013-03-29 17:35:00,
2013-03-29 13:40:00,55.9,29.3,30.27,NNW,328,1.0,1.0,36,0.00,,,0.00,Wunderground v.1.15,2013-03-29 17:40:00,
2013-03-29 13:50:00,56.0,27.3,30.26,West,271,3.0,3.0,33,0.00,,,0.00,Wunderground v.1.15,2013-03-29 17:50:00,
2013-03-29 13:55:00,55.6,26.2,30.26,NW,308,3.0,3.0,32,0.00,,,0.00,Wunderground v.1.15,2013-03-29 17:55:00,
2013-03-29 14:00:00,55.0,26.4,30.26,South,189,2.0,2.0,33,0.00,,,0.00,Wunderground v.1.15,2013-03-29 18:00:00,
2013-03-29 14:10:00,55.4,26.7,30.25,SSW,199,2.0,2.0,33,0.00,,,0.00,Wunderground v.1.15,2013-03-29 18:10:00,
2013-03-29 14:15:00,55.4,26.7,30.25,SSE,152,2.0,3.0,33,0.00,,,0.00,Wunderground v.1.15,2013-03-29 18:15:00,
2013-03-29 14:25:00,55.7,26.3,30.25,WNW,289,2.0,2.0,32,0.00,,,0.00,Wunderground v.1.15,2013-03-29 18:25:00,
2013-03-29 14:35:00,56.2,25.1,30.24,West,278,2.0,3.0,30,0.00,,,0.00,Wunderground v.1.15,2013-03-29 18:35:00,
2013-03-29 14:45:00,56.3,25.2,30.24,SSW,209,1.0,2.0,30,0.00,,,0.00,Wunderground v.1.15,2013-03-29 18:45:00,
2013-03-29 14:50:00,56.3,26.8,30.23,SSW,198,1.0,4.0,32,0.00,,,0.00,Wunderground v.1.15,2013-03-29 18:50:00,
2013-03-29 14:55:00,56.5,27.0,30.23,SSW,198,1.0,4.0,32,0.00,,,0.00,Wunderground v.1.15,2013-03-29 18:55:00,
2013-03-29 15:00:00,56.9,26.5,30.23,NE,40,1.0,1.0,31,0.00,,,0.00,Wunderground v.1.15,2013-03-29 19:00:00,
2013-03-29 15:10:00,57.3,26.1,30.22,WSW,253,2.0,2.0,30,0.00,,,0.00,Wunderground v.1.15,2013-03-29 19:10:00,
2013-03-29 15:15:00,57.6,27.2,30.22,West,275,3.0,3.0,31,0.00,,,0.00,Wunderground v.1.15,2013-03-29 19:15:00,
2013-03-29 15:25:00,58.6,27.2,30.22,West,280,0.0,2.0,30,0.00,,,0.00,Wunderground v.1.15,2013-03-29 19:25:00,
2013-03-29 15:30:00,58.6,26.4,30.22,WNW,295,2.0,10.0,29,0.00,,,0.00,Wunderground v.1.15,2013-03-29 19:30:00,
2013-03-29 15:40:00,57.2,25.2,30.21,WNW,302,3.0,3.0,29,0.00,,,0.00,Wunderground v.1.15,2013-03-29 19:40:00,
2013-03-29 15:45:00,57.0,26.6,30.21,WNW,302,2.0,3.0,31,0.00,,,0.00,Wunderground v.1.15,2013-03-29 19:45:00,
2013-03-29 15:50:00,57.2,26.0,30.20,West,281,2.0,2.0,30,0.00,,,0.00,Wunderground v.1.15,2013-03-29 19:50:00,
2013-03-29 16:00:00,58.9,27.5,30.20,WNW,301,2.0,3.0,30,0.00,,,0.00,Wunderground v.1.15,2013-03-29 20:00:00,
2013-03-29 16:10:00,57.5,25.5,30.20,WNW,298,2.0,5.0,29,0.00,,,0.00,Wunderground v.1.15,2013-03-29 20:10:00,
2013-03-29 16:15:00,57.2,25.2,30.20,WNW,296,3.0,5.0,29,0.00,,,0.00,Wunderground v.1.15,2013-03-29 20:15:00,
2013-03-29 16:25:00,57.0,25.8,30.20,NW,318,1.0,2.0,30,0.00,,,0.00,Wunderground v.1.15,2013-03-29 20:25:00,
2013-03-29 16:35:00,57.2,25.2,30.19,NW,312,1.0,1.0,29,0.00,,,0.00,Wunderground v.1.15,2013-03-29 20:35:00,
2013-03-29 16:40:00,56.9,24.9,30.19,NNE,20,1.0,1.0,29,0.00,,,0.00,Wunderground v.1.15,2013-03-29 20:40:00,
2013-03-29 16:50:00,57.0,25.0,30.19,NNE,20,0.0,0.0,29,0.00,,,0.00,Wunderground v.1.15,2013-03-29 20:50:00,
2013-03-29 17:00:00,57.5,25.5,30.19,NW,304,1.0,1.0,29,0.00,,,0.00,Wunderground v.1.15,2013-03-29 21:00:00,
2013-03-29 17:05:00,57.5,26.3,30.19,NW,311,2.0,2.0,30,0.00,,,0.00,Wunderground v.1.15,2013-03-29 21:05:00,
2013-03-29 17:15:00,56.9,25.7,30.19,NW,309,1.0,2.0,30,0.00,,,0.00,Wunderground v.1.15,2013-03-29 21:15:00,
2013-03-29 17:20:00,56.6,24.7,30.18,NW,315,1.0,2.0,29,0.00,,,0.00,Wunderground v.1.15,2013-03-29 21:20:00,
2013-03-29 17:30:00,56.6,25.5,30.18,NW,304,1.0,2.0,30,0.00,,,0.00,Wunderground v.1.15,2013-03-29 21:30:00,
2013-03-29 17:40:00,56.7,25.6,30.18,NNW,329,2.0,2.0,30,0.00,,,0.00,Wunderground v.1.15,2013-03-29 21:40:00,
2013-03-29 17:50:00,56.7,25.6,30.18,WNW,296,2.0,3.0,30,0.00,,,0.00,Wunderground v.1.15,2013-03-29 21:50:00,
2013-03-29 17:55:00,56.6,26.3,30.18,WNW,288,4.0,5.0,31,0.00,,,0.00,Wunderground v.1.15,2013-03-29 21:55:00,
2013-03-29 18:05:00,56.6,25.5,30.18,WNW,285,2.0,3.0,30,0.00,,,0.00,Wunderground v.1.15,2013-03-29 22:05:00,
2013-03-29 18:10:00,56.5,26.2,30.18,NW,306,2.0,3.0,31,0.00,,,0.00,Wunderground v.1.15,2013-03-29 22:10:00,
2013-03-29 18:20:00,56.0,25.8,30.18,WNW,285,4.0,4.0,31,0.00,,,0.00,Wunderground v.1.15,2013-03-29 22:20:00,
2013-03-29 18:30:00,55.9,26.4,30.18,WNW,299,2.0,2.0,32,0.00,,,0.00,Wunderground v.1.15,2013-03-29 22:30:00,
2013-03-29 18:40:00,55.7,26.3,30.18,WNW,292,1.0,3.0,32,0.00,,,0.00,Wunderground v.1.15,2013-03-29 22:40:00,
2013-03-29 18:45:00,55.6,26.2,30.18,WNW,295,2.0,3.0,32,0.00,,,0.00,Wunderground v.1.15,2013-03-29 22:45:00,
2013-03-29 18:55:00,55.4,26.0,30.19,NNW,340,1.0,2.0,32,0.00,,,0.00,Wunderground v.1.15,2013-03-29 22:55:00,
2013-03-29 19:00:00,55.4,26.0,30.19,NW,315,1.0,1.0,32,0.00,,,0.00,Wunderground v.1.15,2013-03-29 23:00:00,
2013-03-29 19:10:00,55.3,25.9,30.19,NNW,333,2.0,4.0,32,0.00,,,0.00,Wunderground v.1.15,2013-03-29 23:10:00,
2013-03-29 19:20:00,55.0,26.4,30.19,WNW,289,3.0,3.0,33,0.00,,,0.00,Wunderground v.1.15,2013-03-29 23:20:00,
2013-03-29 19:30:00,54.8,26.9,30.19,WNW,289,1.0,1.0,34,0.00,,,0.00,Wunderground v.1.15,2013-03-29 23:30:00,
2013-03-29 19:40:00,54.5,26.7,30.19,NW,308,1.0,1.0,34,0.00,,,0.00,Wunderground v.1.15,2013-03-29 23:40:00,
2013-03-29 19:45:00,54.2,27.1,30.19,NW,308,1.0,1.0,35,0.00,,,0.00,Wunderground v.1.15,2013-03-29 23:45:00,
2013-03-29 19:55:00,53.9,26.1,30.19,NNE,31,1.0,2.0,34,0.00,,,0.00,Wunderground v.1.15,2013-03-29 23:55:00,
2013-03-29 20:00:00,53.9,26.1,30.19,NNE,31,1.0,1.0,34,0.00,,,0.00,Wunderground v.1.15,2013-03-30 00:00:00,
2013-03-29 20:10:00,53.6,26.6,30.19,NNE,31,0.0,0.0,35,0.00,,,0.00,Wunderground v.1.15,2013-03-30 00:10:00,
2013-03-29 20:20:00,53.1,26.8,30.18,NNE,31,0.0,0.0,36,0.00,,,0.00,Wunderground v.1.15,2013-03-30 00:20:00,
2013-03-29 20:30:00,52.5,28.2,30.18,NNE,31,0.0,0.0,39,0.00,,,0.00,Wunderground v.1.15,2013-03-30 00:30:00,
2013-03-29 20:40:00,52.0,27.8,30.19,NNE,31,0.0,1.0,39,0.00,,,0.00,Wunderground v.1.15,2013-03-30 00:40:00,
2013-03-29 20:50:00,51.6,28.6,30.19,NNE,31,0.0,0.0,41,0.00,,,0.00,Wunderground v.1.15,2013-03-30 00:50:00,
2013-03-29 20:55:00,51.1,28.8,30.19,NNE,31,0.0,0.0,42,0.00,,,0.00,Wunderground v.1.15,2013-03-30 00:55:00,
2013-03-29 21:00:00,50.8,29.1,30.19,NNE,31,0.0,0.0,43,0.00,,,0.00,Wunderground v.1.15,2013-03-30 01:00:00,
2013-03-29 21:10:00,50.2,28.5,30.20,NNE,31,0.0,0.0,43,0.00,,,0.00,Wunderground v.1.15,2013-03-30 01:10:00,
2013-03-29 21:15:00,50.2,28.0,30.20,NNE,31,0.0,0.0,42,0.00,,,0.00,Wunderground v.1.15,2013-03-30 01:15:00,
2013-03-29 21:20:00,50.2,28.0,30.19,NNE,31,0.0,0.0,42,0.00,,,0.00,Wunderground v.1.15,2013-03-30 01:20:00,
2013-03-29 21:30:00,49.6,30.2,30.19,NNE,31,0.0,0.0,47,0.00,,,0.00,Wunderground v.1.15,2013-03-30 01:30:00,
2013-03-29 21:40:00,48.5,30.7,30.20,NNE,31,0.0,0.0,50,0.00,,,0.00,Wunderground v.1.15,2013-03-30 01:40:00,
2013-03-29 21:50:00,47.7,30.0,30.20,NNE,31,0.0,0.0,50,0.00,,,0.00,Wunderground v.1.15,2013-03-30 01:50:00,
2013-03-29 22:00:00,47.0,32.5,30.20,NNE,31,0.0,0.0,57,0.00,,,0.00,Wunderground v.1.15,2013-03-30 02:00:00,
2013-03-29 22:05:00,46.5,32.1,30.21,NNE,31,0.0,0.0,57,0.00,,,0.00,Wunderground v.1.15,2013-03-30 02:05:00,
2013-03-29 22:15:00,46.0,32.5,30.21,NNE,31,0.0,0.0,59,0.00,,,0.00,Wunderground v.1.15,2013-03-30 02:15:00,
2013-03-29 22:20:00,45.8,31.9,30.21,NNE,31,0.0,0.0,58,0.00,,,0.00,Wunderground v.1.15,2013-03-30 02:20:00,
2013-03-29 22:25:00,45.7,31.8,30.21,NNE,31,0.0,0.0,58,0.00,,,0.00,Wunderground v.1.15,2013-03-30 02:25:00,
2013-03-29 22:35:00,45.5,31.6,30.21,NNE,31,0.0,0.0,58,0.00,,,0.00,Wunderground v.1.15,2013-03-30 02:35:00,
2013-03-29 22:45:00,45.4,32.3,30.21,NNE,31,0.0,0.0,60,0.00,,,0.00,Wunderground v.1.15,2013-03-30 02:45:00,
2013-03-29 22:50:00,45.1,32.0,30.21,NNE,31,0.0,0.0,60,0.00,,,0.00,Wunderground v.1.15,2013-03-30 02:50:00,
2013-03-29 23:00:00,44.8,32.2,30.21,NNE,31,0.0,0.0,61,0.00,,,0.00,Wunderground v.1.15,2013-03-30 03:00:00,
2013-03-29 23:05:00,44.6,32.0,30.21,NNE,31,0.0,0.0,61,0.00,,,0.00,Wunderground v.1.15,2013-03-30 03:05:00,
2013-03-29 23:15:00,44.5,31.9,30.21,NNE,31,0.0,0.0,61,0.00,,,0.00,Wunderground v.1.15,2013-03-30 03:15:00,
2013-03-29 23:25:00,44.3,32.1,30.21,NNE,31,0.0,0.0,62,0.00,,,0.00,Wunderground v.1.15,2013-03-30 03:25:00,
2013-03-29 23:30:00,44.2,32.0,30.21,NNE,31,0.0,0.0,62,0.00,,,0.00,Wunderground v.1.15,2013-03-30 03:30:00,
2013-03-29 23:40:00,44.1,32.3,30.21,NNE,31,0.0,0.0,63,0.00,,,0.00,Wunderground v.1.15,2013-03-30 03:40:00,
2013-03-29 23:50:00,43.9,31.3,30.21,NNE,31,0.0,0.0,61,0.00,,,0.00,Wunderground v.1.15,2013-03-30 03:50:00,
2013-03-29 23:55:00,43.9,31.3,30.21,NNE,31,0.0,0.0,61,0.00,,,0.00,Wunderground v.1.15,2013-03-30 03:55:00,